Time;durP1;ratioP1;P1;durP2;ratioP2;P2;SDS_P1;SDS_P2;PMS_P1;PMS_P2;Temp;Humidity;BMP_temperature;BMP_pressure;BME280_temperature;BME280_humidity;BME280_pressure;Samples;Min_cycle;Max_cycle;Signal;HPM_P1;HPM_P2
2023/06/13 00:02:00;;;;;;;;;;;;;;;16.60;56.79;95504.16;5074498;28;19934;-73
2023/06/13 00:04:30;;;;;;;;;;;;;;;16.47;57.53;95501.03;5065190;28;19934;-74
2023/06/13 00:06:58;;;;;;;;;;;;;;;16.52;57.23;95506.66;5065972;28;20397;-74
2023/06/13 00:09:25;;;;;;;;;;;;;;;16.50;57.23;95494.69;5072890;28;20051;-73
2023/06/13 00:11:51;;;;;;;;;;;;;;;16.51;57.01;95493.75;5068844;28;19925;-74
2023/06/13 00:14:18;;;;;;;;;;;;;;;16.50;57.43;95495.53;5073141;28;19925;-74
2023/06/13 00:16:44;;;;;;;;;;;;;;;16.50;57.18;95494.69;5070854;28;19943;-73
2023/06/13 00:19:11;;;;;;;;;;;;;;;16.39;57.16;95493.88;5073473;28;19928;-74
2023/06/13 00:21:37;;;;;;;;;;;;;;;16.39;57.53;95499.13;5072828;28;19924;-74
2023/06/13 00:24:05;;;;;;;;;;;;;;;16.48;57.94;95497.44;5069723;28;19928;-74
2023/06/13 00:26:31;;;;;;;;;;;;;;;16.34;58.48;95500.47;5069655;28;19928;-74
2023/06/13 00:28:58;;;;;;;;;;;;;;;16.33;58.20;95499.66;5073532;28;19924;-73
2023/06/13 00:31:28;;;;;;;;;;;;;;;16.20;58.26;95492.09;5069175;28;19933;-73
2023/06/13 00:33:55;;;;;;;;;;;;;;;16.29;57.74;95493.06;5075597;28;20297;-73
2023/06/13 00:36:21;;;;;;;;;;;;;;;16.33;57.85;95491.00;5073546;28;19932;-74
2023/06/13 00:38:48;;;;;;;;;;;;;;;16.32;57.90;95484.94;5073738;28;19925;-74
2023/06/13 00:41:16;;;;;;;;;;;;;;;16.42;57.59;95492.75;5073384;28;19924;-74
2023/06/13 00:43:43;;;;;;;;;;;;;;;16.21;58.75;95504.19;5066145;28;19929;-74
2023/06/13 00:46:09;;;;;;;;;;;;;;;16.07;59.16;95493.31;5072246;28;19981;-73
2023/06/13 00:48:37;;;;;;;;;;;;;;;16.13;59.19;95493.63;5070871;28;19952;-73
2023/06/13 00:51:03;;;;;;;;;;;;;;;16.18;58.62;95499.25;5070592;28;19932;-73
2023/06/13 00:53:31;;;;;;;;;;;;;;;16.18;58.63;95490.59;5070374;28;19931;-73
2023/06/13 00:55:58;;;;;;;;;;;;;;;16.20;58.56;95484.28;5067730;28;20322;-73
2023/06/13 00:58:25;;;;;;;;;;;;;;;16.24;58.59;95479.59;5065769;28;19956;-73
2023/06/13 01:00:53;;;;;;;;;;;;;;;16.17;58.48;95473.25;5067614;28;19928;-73
2023/06/13 01:03:19;;;;;;;;;;;;;;;16.17;58.89;95475.88;5063827;28;20027;-73
2023/06/13 01:05:46;;;;;;;;;;;;;;;16.20;58.45;95475.56;5072496;28;20385;-73
2023/06/13 01:08:14;;;;;;;;;;;;;;;16.20;58.46;95470.34;5065907;28;19932;-73
2023/06/13 01:10:41;;;;;;;;;;;;;;;16.20;58.95;95472.97;5071512;28;19935;-73
2023/06/13 01:13:10;;;;;;;;;;;;;;;16.21;58.71;95469.41;5072276;28;19924;-72
2023/06/13 01:15:42;;;;;;;;;;;;;;;16.17;59.06;95468.03;5072284;28;19932;-72
2023/06/13 01:18:09;;;;;;;;;;;;;;;16.19;59.42;95474.75;5071414;28;20332;-72
2023/06/13 01:20:36;;;;;;;;;;;;;;;16.08;59.78;95472.28;5073940;28;19924;-72
2023/06/13 01:23:14;;;;;;;;;;;;;;;16.06;59.81;95468.19;5082134;28;19931;-73
2023/06/13 01:25:47;;;;;;;;;;;;;;;15.97;60.84;95473.22;5066889;28;20427;-73
2023/06/13 01:28:15;;;;;;;;;;;;;;;15.64;61.96;95470.97;5069860;28;19924;-73
2023/06/13 01:30:42;;;;;;;;;;;;;;;15.57;62.44;95468.06;5073144;28;19931;-73
2023/06/13 01:33:09;;;;;;;;;;;;;;;15.59;62.51;95465.34;5072213;28;19924;-73
2023/06/13 01:35:36;;;;;;;;;;;;;;;15.33;64.23;95467.59;5074076;28;19924;-73
2023/06/13 01:38:04;;;;;;;;;;;;;;;15.31;64.22;95461.69;5067536;28;19928;-73
2023/06/13 01:40:30;;;;;;;;;;;;;;;15.44;63.82;95459.66;5066841;28;19982;-72
2023/06/13 01:42:56;;;;;;;;;;;;;;;15.46;63.77;95458.59;5017050;28;1734823;-72
2023/06/13 01:45:24;;;;;;;;;;;;;;;15.38;64.19;95461.00;5066187;28;19932;-72
2023/06/13 01:47:58;;;;;;;;;;;;;;;15.30;64.61;95457.41;5067039;28;19925;-72
2023/06/13 01:50:27;;;;;;;;;;;;;;;15.28;64.72;95456.72;5066769;28;19982;-72
2023/06/13 01:52:57;;;;;;;;;;;;;;;15.39;65.74;95451.41;5063217;28;19960;-73
2023/06/13 01:55:29;;;;;;;;;;;;;;;14.95;66.69;95461.28;5072684;28;19924;-74
2023/06/13 01:57:58;;;;;;;;;;;;;;;15.14;66.44;95455.31;5064557;28;19925;-73
2023/06/13 02:00:26;;;;;;;;;;;;;;;15.10;66.85;95452.16;5064628;28;20352;-72
2023/06/13 02:02:53;;;;;;;;;;;;;;;15.10;67.54;95451.31;5070386;28;19928;-72
2023/06/13 02:05:20;;;;;;;;;;;;;;;15.09;67.77;95460.09;5065007;28;19932;-72
2023/06/13 02:07:46;;;;;;;;;;;;;;;14.94;70.08;95460.47;5065342;28;19947;-73
2023/06/13 02:10:13;;;;;;;;;;;;;;;14.89;70.84;95467.00;5065419;28;19947;-72
2023/06/13 02:12:39;;;;;;;;;;;;;;;14.85;70.27;95465.63;5073192;28;19959;-74
2023/06/13 02:15:08;;;;;;;;;;;;;;;14.66;71.40;95459.34;5073646;28;19924;-73
2023/06/13 02:17:35;;;;;;;;;;;;;;;14.51;72.09;95458.84;5067614;28;19983;-73
2023/06/13 02:20:03;;;;;;;;;;;;;;;13.97;72.45;95451.97;5065634;28;20006;-74
2023/06/13 02:22:29;;;;;;;;;;;;;;;13.92;73.40;95451.53;5065373;28;19933;-73
2023/06/13 02:24:57;;;;;;;;;;;;;;;13.67;74.88;95450.06;5072075;28;19924;-73
2023/06/13 02:27:23;;;;;;;;;;;;;;;13.79;74.57;95450.88;5067818;28;19928;-73
2023/06/13 02:29:51;;;;;;;;;;;;;;;14.01;74.05;95452.56;5072033;28;19963;-73
2023/06/13 02:32:18;;;;;;;;;;;;;;;13.83;75.49;95459.25;5067546;28;20367;-73
2023/06/13 02:34:46;;;;;;;;;;;;;;;13.82;77.42;95455.81;5072615;28;19928;-74
2023/06/13 02:37:12;;;;;;;;;;;;;;;13.69;77.85;95452.56;5067763;28;20404;-72
2023/06/13 02:39:38;;;;;;;;;;;;;;;13.48;79.59;95455.91;5070815;28;19947;-72
2023/06/13 02:42:05;;;;;;;;;;;;;;;13.35;79.89;95439.66;5065347;28;19974;-72
2023/06/13 02:44:31;;;;;;;;;;;;;;;13.27;80.78;95452.41;5074294;28;19994;-73
2023/06/13 02:46:58;;;;;;;;;;;;;;;13.20;81.70;95440.81;5071839;28;19924;-72
2023/06/13 02:49:24;;;;;;;;;;;;;;;13.15;81.02;95446.38;5073174;28;19933;-72
2023/06/13 02:51:51;;;;;;;;;;;;;;;13.12;82.18;95441.41;5061257;28;20334;-73
2023/06/13 02:54:18;;;;;;;;;;;;;;;13.15;82.10;95441.16;5066346;28;19925;-72
2023/06/13 02:56:44;;;;;;;;;;;;;;;13.05;83.08;95446.28;5070029;28;19929;-72
2023/06/13 02:59:10;;;;;;;;;;;;;;;13.01;84.00;95442.22;5070417;28;19932;-72
2023/06/13 03:01:37;;;;;;;;;;;;;;;12.99;83.95;95440.72;5069351;28;19932;-72
2023/06/13 03:04:03;;;;;;;;;;;;;;;12.96;85.01;95439.19;5069682;28;20290;-72
2023/06/13 03:06:30;;;;;;;;;;;;;;;12.90;84.19;95444.00;5072183;28;19943;-72
2023/06/13 03:08:58;;;;;;;;;;;;;;;12.97;84.54;95442.59;5070530;28;20271;-72
2023/06/13 03:11:24;;;;;;;;;;;;;;;12.91;85.40;95445.69;5070872;28;20393;-72
2023/06/13 03:13:50;;;;;;;;;;;;;;;12.96;85.25;95448.75;5069735;28;19924;-72
2023/06/13 03:16:17;;;;;;;;;;;;;;;13.08;84.44;95448.63;5071688;28;19936;-73
2023/06/13 03:18:44;;;;;;;;;;;;;;;13.13;83.56;95452.66;5071202;28;19944;-72
2023/06/13 03:21:10;;;;;;;;;;;;;;;13.17;82.78;95456.66;5071709;28;20030;-72
2023/06/13 03:23:36;;;;;;;;;;;;;;;13.07;82.41;95464.34;5069519;28;19931;-72
2023/06/13 03:26:06;;;;;;;;;;;;;;;12.89;84.33;95465.75;5071356;28;20089;-72
2023/06/13 03:28:32;;;;;;;;;;;;;;;12.73;86.86;95466.13;5068160;28;20019;-72
2023/06/13 03:31:00;;;;;;;;;;;;;;;12.62;86.77;95466.09;5069764;28;19928;-72
2023/06/13 03:33:26;;;;;;;;;;;;;;;12.55;86.20;95476.13;5069062;28;19982;-72
2023/06/13 03:35:53;;;;;;;;;;;;;;;12.44;87.88;95473.50;5071192;28;19924;-72
2023/06/13 03:38:20;;;;;;;;;;;;;;;12.38;87.65;95477.38;5070621;28;19929;-72
2023/06/13 03:40:46;;;;;;;;;;;;;;;12.41;88.96;95478.91;5069990;28;19932;-72
2023/06/13 03:43:13;;;;;;;;;;;;;;;12.45;89.29;95480.34;5064310;28;19932;-72
2023/06/13 03:45:40;;;;;;;;;;;;;;;12.80;87.53;95483.72;5071175;28;19947;-72
2023/06/13 03:48:06;;;;;;;;;;;;;;;12.60;88.18;95485.22;5082317;28;19973;-72
2023/06/13 03:50:32;;;;;;;;;;;;;;;12.57;88.60;95487.25;5066114;28;19932;-72
2023/06/13 03:52:58;;;;;;;;;;;;;;;12.56;88.44;95488.16;5069033;28;20344;-72
2023/06/13 03:55:25;;;;;;;;;;;;;;;12.66;88.69;95491.72;5069198;28;19925;-72
2023/06/13 03:57:51;;;;;;;;;;;;;;;12.62;91.52;95498.09;5062036;28;19943;-72
2023/06/13 04:00:19;;;;;;;;;;;;;;;12.76;91.48;95490.09;5069546;28;19932;-72
2023/06/13 04:02:46;;;;;;;;;;;;;;;12.84;91.03;95495.53;5067913;28;20024;-72
2023/06/13 04:05:13;;;;;;;;;;;;;;;12.99;89.57;95490.94;5071011;28;20014;-72
2023/06/13 04:07:40;;;;;;;;;;;;;;;13.13;88.62;95495.06;5065883;28;19929;-73
2023/06/13 04:10:06;;;;;;;;;;;;;;;13.21;87.82;95495.31;5071200;28;20563;-75
2023/06/13 04:12:33;;;;;;;;;;;;;;;13.25;87.76;95480.31;5065512;28;19936;-74
2023/06/13 04:14:59;;;;;;;;;;;;;;;13.21;88.85;95492.72;5072691;28;19974;-74
2023/06/13 04:17:27;;;;;;;;;;;;;;;13.28;89.19;95491.31;5068440;28;19928;-75
2023/06/13 04:19:53;;;;;;;;;;;;;;;13.35;88.92;95489.06;5059200;28;19924;-74
2023/06/13 04:22:19;;;;;;;;;;;;;;;13.25;88.96;95488.94;5067709;28;19977;-74
2023/06/13 04:24:46;;;;;;;;;;;;;;;13.31;88.77;95485.88;5066195;28;19936;-76
2023/06/13 04:27:13;;;;;;;;;;;;;;;13.29;88.83;95495.56;5065202;28;19939;-77
2023/06/13 04:29:40;;;;;;;;;;;;;;;13.27;90.46;95494.88;5067122;28;20321;-74
2023/06/13 04:32:17;;;;;;;;;;;;;;;13.47;89.96;95495.91;5069555;28;20302;-73
2023/06/13 04:34:45;;;;;;;;;;;;;;;13.54;91.76;95498.84;5069115;28;19925;-74
2023/06/13 04:37:11;;;;;;;;;;;;;;;13.65;90.14;95500.63;5065643;28;19931;-74
2023/06/13 04:39:37;;;;;;;;;;;;;;;13.84;89.20;95510.38;5062287;28;19924;-74
2023/06/13 04:42:05;;;;;;;;;;;;;;;13.92;90.02;95510.59;5062390;28;19932;-74
2023/06/13 04:44:33;;;;;;;;;;;;;;;14.04;92.15;95520.00;5068302;28;20023;-74
2023/06/13 04:47:01;;;;;;;;;;;;;;;14.01;87.67;95517.66;5068770;28;20409;-74
2023/06/13 04:49:27;;;;;;;;;;;;;;;13.69;90.13;95515.84;5071555;28;20386;-71
2023/06/13 04:51:55;;;;;;;;;;;;;;;14.01;91.04;95517.66;5069136;28;20635;-74
2023/06/13 04:54:21;;;;;;;;;;;;;;;14.24;89.06;95519.25;5071498;28;20015;-74
2023/06/13 04:56:49;;;;;;;;;;;;;;;14.46;88.43;95527.88;5069707;28;19928;-74
2023/06/13 04:59:15;;;;;;;;;;;;;;;14.57;85.29;95525.25;5064542;28;19931;-73
2023/06/13 05:01:43;;;;;;;;;;;;;;;14.77;85.84;95528.84;5073346;28;19970;-73
2023/06/13 05:04:09;;;;;;;;;;;;;;;14.68;82.92;95525.22;5070487;28;20383;-72
2023/06/13 05:06:37;;;;;;;;;;;;;;;14.79;81.64;95520.88;5071007;28;19932;-72
2023/06/13 05:09:06;;;;;;;;;;;;;;;14.80;79.72;95518.16;5072964;28;19928;-73
2023/06/13 05:11:32;;;;;;;;;;;;;;;14.99;79.19;95525.25;5073395;28;20303;-73
2023/06/13 05:13:58;;;;;;;;;;;;;;;15.24;83.32;95518.78;5073364;28;19936;-73
2023/06/13 05:16:30;;;;;;;;;;;;;;;15.41;86.03;95512.13;5072526;28;19932;-73
2023/06/13 05:19:00;;;;;;;;;;;;;;;15.54;78.07;95507.50;5069684;28;20455;-73
2023/06/13 05:21:26;;;;;;;;;;;;;;;15.72;84.72;95508.53;5073151;28;19928;-73
2023/06/13 05:23:53;;;;;;;;;;;;;;;15.91;85.40;95506.94;5065660;28;19924;-72
2023/06/13 05:26:21;;;;;;;;;;;;;;;15.75;79.34;95498.78;5070063;28;20366;-73
2023/06/13 05:28:48;;;;;;;;;;;;;;;15.95;75.35;95508.31;5072542;28;19968;-73
2023/06/13 05:31:14;;;;;;;;;;;;;;;16.11;73.41;95511.19;5072692;28;19934;-73
2023/06/13 05:33:40;;;;;;;;;;;;;;;16.25;78.40;95509.16;5071584;28;20012;-73
2023/06/13 05:36:07;;;;;;;;;;;;;;;16.38;74.52;95515.72;5066115;28;19931;-72
2023/06/13 05:38:33;;;;;;;;;;;;;;;16.58;76.75;95518.38;5069143;28;19925;-72
2023/06/13 05:41:00;;;;;;;;;;;;;;;16.60;74.31;95519.03;5072645;28;19932;-73
2023/06/13 05:43:27;;;;;;;;;;;;;;;16.69;72.03;95521.66;5069831;28;19933;-73
2023/06/13 05:45:53;;;;;;;;;;;;;;;16.79;74.06;95518.22;5067563;28;19932;-72
2023/06/13 05:48:20;;;;;;;;;;;;;;;16.82;69.67;95513.53;5071313;28;19924;-72
2023/06/13 05:50:46;;;;;;;;;;;;;;;16.48;68.22;95515.75;5067858;28;19932;-73
2023/06/13 05:53:12;;;;;;;;;;;;;;;16.60;66.17;95505.97;5070875;28;19924;-74
2023/06/13 05:55:38;;;;;;;;;;;;;;;16.48;65.28;95507.91;5063645;28;20343;-74
2023/06/13 05:58:05;;;;;;;;;;;;;;;16.59;66.08;95502.53;5062397;28;19947;-74
2023/06/13 06:00:32;;;;;;;;;;;;;;;16.39;63.48;95500.91;5065211;28;19929;-73
2023/06/13 06:02:59;;;;;;;;;;;;;;;16.29;60.55;95505.31;5072252;28;19936;-73
2023/06/13 06:05:25;;;;;;;;;;;;;;;16.27;60.99;95502.81;5071196;28;20414;-74
2023/06/13 06:07:51;;;;;;;;;;;;;;;16.36;59.44;95511.63;5068602;28;20389;-75
2023/06/13 06:10:17;;;;;;;;;;;;;;;16.52;62.79;95508.44;5067342;28;19924;-74
2023/06/13 06:12:44;;;;;;;;;;;;;;;16.53;62.00;95513.53;5069036;28;19974;-74
2023/06/13 06:15:11;;;;;;;;;;;;;;;16.49;59.20;95517.38;5070799;28;19935;-75
2023/06/13 06:17:38;;;;;;;;;;;;;;;16.60;57.99;95514.63;5062056;28;19994;-75
2023/06/13 06:20:06;;;;;;;;;;;;;;;16.75;54.90;95520.28;5073874;28;19932;-75
2023/06/13 06:22:32;;;;;;;;;;;;;;;17.07;54.77;95519.94;5066755;28;19978;-75
2023/06/13 06:24:58;;;;;;;;;;;;;;;17.04;54.55;95519.41;5060238;28;19933;-75
2023/06/13 06:27:25;;;;;;;;;;;;;;;17.10;55.97;95519.66;5073414;28;19932;-74
2023/06/13 06:29:51;;;;;;;;;;;;;;;16.86;55.55;95520.13;5068012;28;19929;-74
2023/06/13 06:32:18;;;;;;;;;;;;;;;16.90;53.57;95523.28;5071365;28;20482;-74
2023/06/13 06:34:45;;;;;;;;;;;;;;;17.21;49.07;95515.22;5072347;28;19933;-76
2023/06/13 06:37:13;;;;;;;;;;;;;;;17.38;55.64;95517.91;5065416;28;19978;-75
2023/06/13 06:39:39;;;;;;;;;;;;;;;17.72;49.48;95513.88;5070301;28;19983;-73
2023/06/13 06:42:05;;;;;;;;;;;;;;;17.69;52.88;95511.53;5070683;28;19970;-72
2023/06/13 06:44:32;;;;;;;;;;;;;;;17.16;49.37;95508.59;5068366;28;19929;-72
2023/06/13 06:46:58;;;;;;;;;;;;;;;17.08;49.92;95512.91;5067467;28;19932;-72
2023/06/13 06:49:24;;;;;;;;;;;;;;;17.18;48.15;95505.88;5068771;28;19928;-73
2023/06/13 06:51:52;;;;;;;;;;;;;;;17.45;48.34;95507.66;5067702;28;20405;-72
2023/06/13 06:54:18;;;;;;;;;;;;;;;17.64;50.17;95507.56;5068954;28;19933;-72
2023/06/13 06:56:44;;;;;;;;;;;;;;;17.52;48.31;95507.94;5067672;28;19924;-73
2023/06/13 06:59:11;;;;;;;;;;;;;;;17.50;48.77;95510.69;5069781;28;20429;-72
2023/06/13 07:01:37;;;;;;;;;;;;;;;17.83;49.33;95519.75;5066898;28;19933;-72
2023/06/13 07:04:03;;;;;;;;;;;;;;;17.73;49.87;95510.31;5070021;28;20002;-72
2023/06/13 07:06:30;;;;;;;;;;;;;;;17.67;48.42;95503.84;5068631;28;20431;-72
2023/06/13 07:08:58;;;;;;;;;;;;;;;17.94;44.48;95502.19;5068531;28;19932;-72
2023/06/13 07:11:24;;;;;;;;;;;;;;;17.89;46.77;95498.22;5068538;28;19933;-73
2023/06/13 07:13:51;;;;;;;;;;;;;;;17.82;49.76;95504.22;5069872;28;19932;-73
2023/06/13 07:16:17;;;;;;;;;;;;;;;17.76;47.94;95499.53;5070958;28;20131;-74
2023/06/13 07:18:43;;;;;;;;;;;;;;;17.93;47.57;95500.56;5070818;28;19931;-74
2023/06/13 07:21:09;;;;;;;;;;;;;;;17.92;45.59;95502.34;5066762;28;19924;-73
2023/06/13 07:23:36;;;;;;;;;;;;;;;18.08;49.69;95501.69;5062798;28;20011;-74
2023/06/13 07:26:03;;;;;;;;;;;;;;;18.37;49.41;95507.53;5067629;28;19925;-74
2023/06/13 07:28:29;;;;;;;;;;;;;;;18.40;47.75;95509.03;5069865;28;19932;-77
2023/06/13 07:30:58;;;;;;;;;;;;;;;18.51;44.44;95508.00;5063756;28;19928;-77
2023/06/13 07:33:25;;;;;;;;;;;;;;;18.71;47.35;95509.47;5067862;28;19951;-73
2023/06/13 07:35:52;;;;;;;;;;;;;;;18.85;48.13;95516.81;5071252;28;19924;-75
2023/06/13 07:38:19;;;;;;;;;;;;;;;18.98;44.12;95515.56;5070801;28;19932;-70
2023/06/13 07:40:45;;;;;;;;;;;;;;;19.22;42.53;95505.22;5065577;28;19925;-73
2023/06/13 07:43:13;;;;;;;;;;;;;;;19.20;42.83;95499.28;5073802;28;20318;-72
2023/06/13 07:45:39;;;;;;;;;;;;;;;19.15;46.23;95492.88;5078382;28;19924;-73
2023/06/13 07:48:06;;;;;;;;;;;;;;;19.02;44.80;95496.75;5071623;28;20106;-73
2023/06/13 07:50:32;;;;;;;;;;;;;;;19.22;46.18;95496.53;5067044;28;19924;-73
2023/06/13 07:52:59;;;;;;;;;;;;;;;19.29;42.65;95484.44;5060781;28;19935;-73
2023/06/13 07:55:26;;;;;;;;;;;;;;;19.82;47.02;95476.28;5062191;28;19936;-73
2023/06/13 07:57:52;;;;;;;;;;;;;;;19.90;41.84;95475.47;5063828;28;20392;-73
2023/06/13 08:00:20;;;;;;;;;;;;;;;19.67;44.09;95482.31;5062304;28;19929;-74
2023/06/13 08:02:46;;;;;;;;;;;;;;;19.50;39.26;95486.63;5069352;28;20337;-68
2023/06/13 08:05:13;;;;;;;;;;;;;;;19.50;40.35;95479.56;5069619;28;19932;-68
2023/06/13 08:07:40;;;;;;;;;;;;;;;19.52;42.49;95484.69;5066059;28;19926;-69
2023/06/13 08:10:07;;;;;;;;;;;;;;;19.28;40.19;95485.38;5063525;28;19935;-69
2023/06/13 08:12:34;;;;;;;;;;;;;;;19.36;44.37;95482.00;5063198;28;20037;-72
2023/06/13 08:15:00;;;;;;;;;;;;;;;19.64;39.83;95485.25;5070044;28;19993;-72
2023/06/13 08:17:28;;;;;;;;;;;;;;;19.56;41.69;95478.13;5069208;28;19928;-72
2023/06/13 08:19:55;;;;;;;;;;;;;;;19.71;40.80;95481.81;5069829;28;19925;-72
2023/06/13 08:22:21;;;;;;;;;;;;;;;19.76;39.62;95469.03;5066327;28;19938;-73
2023/06/13 08:24:47;;;;;;;;;;;;;;;19.90;40.72;95470.22;5070850;28;20546;-73
2023/06/13 08:27:14;;;;;;;;;;;;;;;19.93;37.29;95464.63;5065700;28;19928;-73
2023/06/13 08:29:41;;;;;;;;;;;;;;;20.07;35.96;95471.06;5060812;28;20015;-73
2023/06/13 08:32:07;;;;;;;;;;;;;;;20.24;37.03;95477.16;5065284;28;19924;-73
2023/06/13 08:34:36;;;;;;;;;;;;;;;20.13;37.03;95480.09;5068641;28;19932;-73
2023/06/13 08:37:02;;;;;;;;;;;;;;;19.95;38.75;95470.56;5070420;28;20424;-73
2023/06/13 08:39:28;;;;;;;;;;;;;;;20.22;39.46;95481.78;5067379;28;20457;-73
2023/06/13 08:41:56;;;;;;;;;;;;;;;20.29;36.44;95473.06;5071576;28;19928;-73
2023/06/13 08:44:22;;;;;;;;;;;;;;;20.54;38.67;95475.72;5063158;28;19928;-73
2023/06/13 08:46:48;;;;;;;;;;;;;;;20.34;36.79;95477.84;5065721;28;20380;-73
2023/06/13 08:49:15;;;;;;;;;;;;;;;20.34;35.58;95467.31;5070539;28;19924;-73
2023/06/13 08:51:44;;;;;;;;;;;;;;;20.31;34.49;95471.09;5073100;28;19978;-73
2023/06/13 08:54:12;;;;;;;;;;;;;;;20.76;34.74;95476.88;5066898;28;20020;-73
2023/06/13 08:56:40;;;;;;;;;;;;;;;20.49;35.24;95460.44;5067543;28;20086;-72
2023/06/13 08:59:08;;;;;;;;;;;;;;;20.36;35.29;95467.13;5072653;28;19932;-72
2023/06/13 09:01:35;;;;;;;;;;;;;;;20.56;36.97;95465.88;5072142;28;19925;-71
2023/06/13 09:04:02;;;;;;;;;;;;;;;20.35;34.84;95468.13;5072053;28;19936;-72
2023/06/13 09:06:31;;;;;;;;;;;;;;;20.46;34.78;95462.53;5072816;28;19939;-72
2023/06/13 09:08:59;;;;;;;;;;;;;;;20.66;38.13;95465.72;5071511;28;19928;-73
2023/06/13 09:11:27;;;;;;;;;;;;;;;20.69;38.09;95467.97;5075340;28;19927;-70
2023/06/13 09:13:56;;;;;;;;;;;;;;;21.28;38.72;95457.97;5065589;28;19951;-72
2023/06/13 09:16:22;;;;;;;;;;;;;;;21.65;36.07;95464.47;5067891;28;19978;-73
2023/06/13 09:18:49;;;;;;;;;;;;;;;22.01;35.69;95469.22;5070567;28;19942;-73
2023/06/13 09:21:16;;;;;;;;;;;;;;;21.81;32.77;95461.75;5071303;28;20027;-72
2023/06/13 09:23:42;;;;;;;;;;;;;;;22.25;34.36;95462.97;5070608;28;19928;-72
2023/06/13 09:26:11;;;;;;;;;;;;;;;22.53;34.00;95458.00;5072440;28;20364;-73
2023/06/13 09:28:40;;;;;;;;;;;;;;;22.60;32.33;95461.56;5071901;28;19929;-72
2023/06/13 09:31:06;;;;;;;;;;;;;;;22.80;33.11;95464.53;5071503;28;19925;-73
2023/06/13 09:33:33;;;;;;;;;;;;;;;22.30;31.05;95458.03;5068378;28;19978;-72
2023/06/13 09:35:59;;;;;;;;;;;;;;;22.56;34.93;95452.38;5071336;28;19937;-72
2023/06/13 09:38:26;;;;;;;;;;;;;;;22.29;31.83;95449.28;5070871;28;19978;-72
2023/06/13 09:40:54;;;;;;;;;;;;;;;22.58;34.32;95451.19;5072174;28;19924;-72
2023/06/13 09:43:21;;;;;;;;;;;;;;;22.34;34.54;95451.38;5070301;28;20011;-72
2023/06/13 09:45:48;;;;;;;;;;;;;;;22.45;36.23;95443.88;5065933;28;19929;-72
2023/06/13 09:48:15;;;;;;;;;;;;;;;22.33;34.54;95444.47;5069598;28;19970;-72
2023/06/13 09:50:42;;;;;;;;;;;;;;;22.11;32.83;95454.00;5071425;28;19931;-73
2023/06/13 09:53:08;;;;;;;;;;;;;;;22.19;34.82;95443.41;5067385;28;20075;-72
2023/06/13 09:55:35;;;;;;;;;;;;;;;22.44;34.20;95452.78;5058224;28;19982;-72
2023/06/13 09:58:02;;;;;;;;;;;;;;;22.30;33.25;95450.09;5063917;28;20397;-73
2023/06/13 10:00:29;;;;;;;;;;;;;;;22.13;34.82;95452.00;5071302;28;20027;-72
2023/06/13 10:02:56;;;;;;;;;;;;;;;22.44;31.24;95449.34;5071176;28;19931;-73
2023/06/13 10:05:23;;;;;;;;;;;;;;;22.44;33.38;95452.78;5071664;28;19932;-73
2023/06/13 10:07:49;;;;;;;;;;;;;;;22.33;30.95;95449.75;5067084;28;19929;-73
2023/06/13 10:10:16;;;;;;;;;;;;;;;22.45;31.31;95446.50;5068231;28;19929;-73
2023/06/13 10:12:45;;;;;;;;;;;;;;;22.50;31.88;95442.50;5068074;28;19934;-72
2023/06/13 10:15:13;;;;;;;;;;;;;;;22.51;33.04;95429.16;5068829;28;19928;-72
2023/06/13 10:17:41;;;;;;;;;;;;;;;22.64;32.92;95439.91;5065672;28;19929;-72
2023/06/13 10:20:11;;;;;;;;;;;;;;;22.94;34.42;95442.63;5065859;28;19924;-72
2023/06/13 10:22:39;;;;;;;;;;;;;;;23.00;32.09;95455.13;5070054;28;19924;-71
2023/06/13 10:25:06;;;;;;;;;;;;;;;22.52;30.21;95441.34;5064318;28;19931;-71
2023/06/13 10:27:34;;;;;;;;;;;;;;;22.46;34.51;95442.06;5068847;28;20393;-71
2023/06/13 10:30:15;;;;;;;;;;;;;;;22.52;29.99;95443.16;5070803;28;19932;-71
2023/06/13 10:32:58;;;;;;;;;;;;;;;22.59;30.50;95442.28;5067306;28;19924;-71
2023/06/13 10:35:36;;;;;;;;;;;;;;;22.58;33.10;95445.91;5069689;28;20299;-71
2023/06/13 10:38:14;;;;;;;;;;;;;;;22.45;32.89;95448.34;5071400;28;20374;-71
2023/06/13 10:40:57;;;;;;;;;;;;;;;22.58;32.24;95439.81;5070180;28;19935;-71
2023/06/13 10:43:27;;;;;;;;;;;;;;;22.59;33.21;95428.25;5069501;28;19974;-71
2023/06/13 10:45:54;;;;;;;;;;;;;;;22.80;33.38;95435.47;5066678;28;19995;-71
2023/06/13 10:48:31;;;;;;;;;;;;;;;22.90;30.96;95426.28;5070301;28;19986;-71
2023/06/13 10:50:57;;;;;;;;;;;;;;;23.08;31.54;95431.25;5062702;28;19970;-71
2023/06/13 10:53:24;;;;;;;;;;;;;;;23.13;31.80;95433.34;5068408;28;19982;-71
2023/06/13 10:55:51;;;;;;;;;;;;;;;23.14;30.72;95435.00;5060795;28;19982;-72
2023/06/13 10:58:17;;;;;;;;;;;;;;;23.01;30.29;95437.44;5069173;28;20336;-72
2023/06/13 11:00:44;;;;;;;;;;;;;;;23.21;31.32;95429.78;5062768;28;20291;-72
2023/06/13 11:03:12;;;;;;;;;;;;;;;23.32;31.17;95432.78;5069419;28;19982;-72
2023/06/13 11:05:49;;;;;;;;;;;;;;;23.30;27.36;95434.81;5071201;28;19928;-72
2023/06/13 11:08:15;;;;;;;;;;;;;;;23.40;30.05;95429.25;5069444;28;20382;-71
2023/06/13 11:10:42;;;;;;;;;;;;;;;23.11;30.17;95438.81;5068206;28;20305;-71
2023/06/13 11:13:16;;;;;;;;;;;;;;;22.90;30.39;95439.50;5072586;28;20356;-70
2023/06/13 11:15:43;;;;;;;;;;;;;;;23.24;29.31;95424.16;5067830;28;19933;-71
2023/06/13 11:18:27;;;;;;;;;;;;;;;23.37;31.73;95419.88;5068106;28;20382;-70
2023/06/13 11:20:56;;;;;;;;;;;;;;;23.40;27.17;95419.50;5064580;28;19999;-71
2023/06/13 11:23:23;;;;;;;;;;;;;;;23.53;27.86;95413.53;5070201;28;20023;-70
2023/06/13 11:25:50;;;;;;;;;;;;;;;23.56;28.89;95407.06;5076376;28;19974;-71
2023/06/13 11:28:17;;;;;;;;;;;;;;;23.27;25.65;95402.66;5064146;28;19933;-71
2023/06/13 11:30:44;;;;;;;;;;;;;;;23.38;29.42;95408.28;5068171;28;20474;-72
2023/06/13 11:33:12;;;;;;;;;;;;;;;23.70;27.68;95395.69;5063855;28;20015;-73
2023/06/13 11:35:39;;;;;;;;;;;;;;;23.39;29.05;95394.06;5056574;28;19974;-71
2023/06/13 11:38:10;;;;;;;;;;;;;;;23.32;28.13;95400.25;5065841;28;20007;-72
2023/06/13 11:40:39;;;;;;;;;;;;;;;23.41;27.80;95417.69;5067460;28;19931;-72
2023/06/13 11:43:05;;;;;;;;;;;;;;;23.43;28.82;95413.84;5066562;28;20015;-71
2023/06/13 11:45:32;;;;;;;;;;;;;;;23.26;30.14;95406.31;5070312;28;20389;-71
2023/06/13 11:47:59;;;;;;;;;;;;;;;23.27;31.41;95402.66;5060420;28;19955;-72
2023/06/13 11:50:25;;;;;;;;;;;;;;;23.22;29.71;95399.75;5069300;28;20569;-71
2023/06/13 11:53:02;;;;;;;;;;;;;;;23.28;26.99;95405.09;5062095;28;19924;-72
2023/06/13 11:55:30;;;;;;;;;;;;;;;23.38;27.45;95404.81;5062873;28;19954;-70
2023/06/13 11:57:56;;;;;;;;;;;;;;;23.36;26.50;95402.38;5073695;28;19928;-71
2023/06/13 12:00:26;;;;;;;;;;;;;;;23.36;27.11;95397.09;5067238;28;19931;-71
2023/06/13 12:02:52;;;;;;;;;;;;;;;23.43;29.04;95398.00;5075375;28;19924;-71
2023/06/13 12:05:19;;;;;;;;;;;;;;;23.60;29.43;95393.28;5066634;28;19936;-71
2023/06/13 12:07:45;;;;;;;;;;;;;;;23.54;28.38;95388.75;5069561;28;20439;-71
2023/06/13 12:10:12;;;;;;;;;;;;;;;23.69;27.76;95391.38;5066186;28;20409;-72
2023/06/13 12:12:40;;;;;;;;;;;;;;;23.67;25.02;95398.69;5070508;28;20047;-74
2023/06/13 12:15:07;;;;;;;;;;;;;;;23.77;27.89;95391.28;5074649;28;20374;-73
2023/06/13 12:17:34;;;;;;;;;;;;;;;23.85;28.29;95387.72;5065054;28;19982;-71
2023/06/13 12:20:07;;;;;;;;;;;;;;;23.95;30.96;95387.38;5064498;28;19925;-74
2023/06/13 12:22:33;;;;;;;;;;;;;;;23.98;28.17;95379.06;5071123;28;20378;-73
2023/06/13 12:25:00;;;;;;;;;;;;;;;23.94;28.87;95388.41;5067295;28;19924;-74
2023/06/13 12:27:26;;;;;;;;;;;;;;;23.86;28.80;95376.13;5074055;28;20356;-74
2023/06/13 12:29:54;;;;;;;;;;;;;;;23.59;27.50;95391.66;5070434;28;19929;-73
2023/06/13 12:32:25;;;;;;;;;;;;;;;23.67;27.66;95377.56;5068176;28;19931;-72
2023/06/13 12:34:51;;;;;;;;;;;;;;;23.47;26.74;95371.97;5084106;28;19944;-72
2023/06/13 12:37:19;;;;;;;;;;;;;;;23.64;28.64;95367.31;5079888;28;19924;-72
2023/06/13 12:40:06;;;;;;;;;;;;;;;23.58;26.45;95363.59;5075820;28;19925;-73
2023/06/13 12:42:35;;;;;;;;;;;;;;;23.86;28.19;95370.81;5073789;28;20008;-72
2023/06/13 12:45:03;;;;;;;;;;;;;;;23.66;30.13;95376.72;5074158;28;19932;-72
2023/06/13 12:47:29;;;;;;;;;;;;;;;23.57;29.03;95377.81;5069398;28;19970;-72
2023/06/13 12:50:06;;;;;;;;;;;;;;;23.43;28.06;95363.63;5070700;28;19925;-73